Hurlburt Field, FL

7:29 PM CDT on September 01, 2015 (GMT -0500)
Hurlburt | | Change Station
CLOSE
Current Station
Airport
Location: Hurlburt Field,
Elevation: 39 ft
Nearby Weather Stations

Elev 39 ft 30.43 °N, 86.69 °W | Updated 31 minutes ago

Scattered Clouds
Scattered Clouds
86 °F
Feels Like 91 °F
N
4
Wind Variable Wind from WSW

Today
High -- | Low -- °F
--% Chance of Precip.
Yesterday
High -- | Low -- °F
Precip. -- in
6:23 AM 7:09 PM
Waning Gibbous, 85% visible
Pressure 30.01 in
Visibility 10.0 miles
Clouds Scattered Clouds 7500 ft
Heat Index 91 °F
Dew Point 70 °F
Humidity 59%
Rainfall 0.00 in
Snow Depth Not available.
UV 0 out of 12
Pollen 7.90 out of 12
Air Quality Not available.
Flu Activity Not available.
METAR KHRT 012358Z AUTO 25003KT 10SM SCT075 30/21 A3000 RMK AO2 SLP161 60000 T03000213 10343 20300 58001 $
Pressure 30.01 in
Visibility 10.0 miles
Clouds Scattered Clouds 7500 ft
Heat Index 91 °F
Dew Point 70 °F
Humidity 59%
Rainfall 0.00 in
Snow Depth Not available.
UV 0 out of 12
Pollen 7.90 out of 12
Air Quality Not available.
Flu Activity Not available.
METAR KHRT 012358Z AUTO 25003KT 10SM SCT075 30/21 A3000 RMK AO2 SLP161 60000 T03000213 10343 20300 58001 $

10-Day Weather Forecast

×

Almanac

Astronomy

Sep. 01, 2015 Rise Set
Actual Time
Civil Twilight
Nautical Twilight
Astronomical Twilight
Moon
Length of Visible Light
Length of Day
Tomorrow will be .
, % of the Moon is Illuminated

Today's Extremes

State Highs State Lows

Community

WunderPhotos

Upload Photos

1,851,657 photos uploaded!

WunderBlogs® & News

Nearby

Air Quality

  Air Quality AQ Index Pollutant
Not available.

Snow Depth

Station Depth Elevation

Earthquake Activity

City Distance Mag. Time & Date
Minimum magnitude displayed is 2.5.

Coastal Water Temperatures

Place Temperature

Stations

Nearby Weather Stations

Station Location Temp. Windchill Dew Point Humidity Wind Precip. Elev Updated Type